sensor_id;sensor_type;location;lat;lon;timestamp;pressure;altitude;pressure_sealevel;temperature;humidity
7264;BME280;3673;52.480;13.348;2023-12-20T00:00:25;100536.94;;;11.24;68.94
7264;BME280;3673;52.480;13.348;2023-12-20T00:02:52;100536.84;;;11.31;68.89
7264;BME280;3673;52.480;13.348;2023-12-20T00:05:18;100539.38;;;11.45;68.36
7264;BME280;3673;52.480;13.348;2023-12-20T00:07:45;100549.06;;;11.35;68.90
7264;BME280;3673;52.480;13.348;2023-12-20T00:10:12;100546.69;;;10.95;69.14
7264;BME280;3673;52.480;13.348;2023-12-20T00:12:39;100529.44;;;10.63;70.03
7264;BME280;3673;52.480;13.348;2023-12-20T00:15:07;100536.22;;;11.01;70.21
7264;BME280;3673;52.480;13.348;2023-12-20T00:17:35;100522.22;;;11.02;69.46
7264;BME280;3673;52.480;13.348;2023-12-20T00:20:03;100525.78;;;10.93;69.66
7264;BME280;3673;52.480;13.348;2023-12-20T00:22:31;100518.75;;;10.98;69.62
7264;BME280;3673;52.480;13.348;2023-12-20T00:24:58;100521.13;;;11.31;69.48
7264;BME280;3673;52.480;13.348;2023-12-20T00:27:25;100516.84;;;11.21;68.98
7264;BME280;3673;52.480;13.348;2023-12-20T00:29:52;100521.38;;;10.98;69.31
7264;BME280;3673;52.480;13.348;2023-12-20T00:32:19;100514.22;;;11.21;69.22
7264;BME280;3673;52.480;13.348;2023-12-20T00:34:47;100505.56;;;11.15;69.67
7264;BME280;3673;52.480;13.348;2023-12-20T00:37:13;100502.34;;;10.72;70.27
7264;BME280;3673;52.480;13.348;2023-12-20T00:39:40;100507.50;;;10.82;70.57
7264;BME280;3673;52.480;13.348;2023-12-20T00:42:07;100511.81;;;10.91;70.38
7264;BME280;3673;52.480;13.348;2023-12-20T00:44:34;100522.50;;;10.44;70.31
7264;BME280;3673;52.480;13.348;2023-12-20T00:47:01;100492.00;;;10.46;71.22
7264;BME280;3673;52.480;13.348;2023-12-20T00:49:31;100513.78;;;10.51;71.59
7264;BME280;3673;52.480;13.348;2023-12-20T00:51:59;100511.06;;;10.69;70.89
7264;BME280;3673;52.480;13.348;2023-12-20T00:54:25;100510.09;;;10.90;70.06
7264;BME280;3673;52.480;13.348;2023-12-20T00:56:52;100502.25;;;10.90;70.21
7264;BME280;3673;52.480;13.348;2023-12-20T00:59:19;100502.19;;;10.96;70.32
7264;BME280;3673;52.480;13.348;2023-12-20T01:01:46;100510.88;;;11.07;69.71
7264;BME280;3673;52.480;13.348;2023-12-20T01:04:13;100518.72;;;11.01;70.21
7264;BME280;3673;52.480;13.348;2023-12-20T01:06:40;100515.28;;;10.95;69.84
7264;BME280;3673;52.480;13.348;2023-12-20T01:09:08;100512.59;;;11.08;70.12
7264;BME280;3673;52.480;13.348;2023-12-20T01:11:34;100512.63;;;11.07;69.27
7264;BME280;3673;52.480;13.348;2023-12-20T01:14:01;100524.91;;;10.91;70.34
7264;BME280;3673;52.480;13.348;2023-12-20T01:16:28;100515.22;;;11.05;70.21
7264;BME280;3673;52.480;13.348;2023-12-20T01:18:55;100521.25;;;11.16;70.17
7264;BME280;3673;52.480;13.348;2023-12-20T01:21:21;100514.50;;;10.79;69.90
7264;BME280;3673;52.480;13.348;2023-12-20T01:23:48;100521.31;;;11.04;70.63
7264;BME280;3673;52.480;13.348;2023-12-20T01:26:16;100526.72;;;10.80;70.42
7264;BME280;3673;52.480;13.348;2023-12-20T01:28:43;100511.03;;;10.78;71.03
7264;BME280;3673;52.480;13.348;2023-12-20T01:31:10;100514.31;;;11.14;69.81
7264;BME280;3673;52.480;13.348;2023-12-20T01:33:37;100513.50;;;11.01;70.31
7264;BME280;3673;52.480;13.348;2023-12-20T01:36:04;100522.22;;;11.06;70.29
7264;BME280;3673;52.480;13.348;2023-12-20T01:38:31;100509.91;;;11.19;70.22
7264;BME280;3673;52.480;13.348;2023-12-20T01:40:58;100521.44;;;10.89;71.25
7264;BME280;3673;52.480;13.348;2023-12-20T01:43:26;100507.25;;;11.23;70.24
7264;BME280;3673;52.480;13.348;2023-12-20T01:45:56;100501.31;;;11.00;70.15
7264;BME280;3673;52.480;13.348;2023-12-20T01:48:24;100506.69;;;10.74;70.25
7264;BME280;3673;52.480;13.348;2023-12-20T01:50:51;100505.53;;;11.18;70.13
7264;BME280;3673;52.480;13.348;2023-12-20T01:53:20;100504.69;;;11.17;69.81
7264;BME280;3673;52.480;13.348;2023-12-20T01:55:48;100500.53;;;10.83;70.75
7264;BME280;3673;52.480;13.348;2023-12-20T01:58:17;100501.50;;;10.67;71.29
7264;BME280;3673;52.480;13.348;2023-12-20T02:00:46;100492.63;;;10.88;71.09
7264;BME280;3673;52.480;13.348;2023-12-20T02:03:13;100495.06;;;11.15;70.52
7264;BME280;3673;52.480;13.348;2023-12-20T02:05:40;100493.41;;;11.05;70.69
7264;BME280;3673;52.480;13.348;2023-12-20T02:08:07;100496.19;;;10.79;71.60
7264;BME280;3673;52.480;13.348;2023-12-20T02:10:34;100490.13;;;10.74;72.19
7264;BME280;3673;52.480;13.348;2023-12-20T02:13:01;100483.84;;;10.98;71.38
7264;BME280;3673;52.480;13.348;2023-12-20T02:15:28;100486.59;;;10.82;71.02
7264;BME280;3673;52.480;13.348;2023-12-20T02:17:56;100476.94;;;10.89;71.33
7264;BME280;3673;52.480;13.348;2023-12-20T02:20:23;100502.03;;;11.19;71.21
7264;BME280;3673;52.480;13.348;2023-12-20T02:22:51;100494.28;;;11.07;70.62
7264;BME280;3673;52.480;13.348;2023-12-20T02:25:18;100492.53;;;11.07;70.87
7264;BME280;3673;52.480;13.348;2023-12-20T02:27:45;100490.06;;;10.83;71.03
7264;BME280;3673;52.480;13.348;2023-12-20T02:30:12;100484.97;;;10.60;72.00
7264;BME280;3673;52.480;13.348;2023-12-20T02:32:39;100489.16;;;10.90;71.37
7264;BME280;3673;52.480;13.348;2023-12-20T02:35:06;100494.47;;;10.75;71.48
7264;BME280;3673;52.480;13.348;2023-12-20T02:37:33;100500.28;;;11.22;70.46
7264;BME280;3673;52.480;13.348;2023-12-20T02:40:01;100487.38;;;10.92;70.15
7264;BME280;3673;52.480;13.348;2023-12-20T02:42:29;100478.69;;;10.90;70.67
7264;BME280;3673;52.480;13.348;2023-12-20T02:44:56;100486.44;;;11.07;70.01
7264;BME280;3673;52.480;13.348;2023-12-20T02:47:23;100490.00;;;10.97;70.53
7264;BME280;3673;52.480;13.348;2023-12-20T02:49:50;100486.72;;;10.60;70.72
7264;BME280;3673;52.480;13.348;2023-12-20T02:52:18;100479.56;;;10.88;70.38
7264;BME280;3673;52.480;13.348;2023-12-20T02:54:45;100486.53;;;10.89;70.40
7264;BME280;3673;52.480;13.348;2023-12-20T02:57:13;100492.88;;;10.50;70.84
7264;BME280;3673;52.480;13.348;2023-12-20T02:59:40;100481.50;;;10.55;71.19
7264;BME280;3673;52.480;13.348;2023-12-20T03:02:07;100486.56;;;10.85;70.35
7264;BME280;3673;52.480;13.348;2023-12-20T03:04:34;100485.72;;;10.83;70.27
7264;BME280;3673;52.480;13.348;2023-12-20T03:07:00;100489.09;;;10.98;70.02
7264;BME280;3673;52.480;13.348;2023-12-20T03:09:27;100486.34;;;11.19;68.90
7264;BME280;3673;52.480;13.348;2023-12-20T03:11:54;100497.00;;;10.89;68.90
7264;BME280;3673;52.480;13.348;2023-12-20T03:14:22;100498.81;;;10.83;69.56
7264;BME280;3673;52.480;13.348;2023-12-20T03:16:49;100492.47;;;11.15;68.65
7264;BME280;3673;52.480;13.348;2023-12-20T03:19:17;100498.47;;;11.29;68.09
7264;BME280;3673;52.480;13.348;2023-12-20T03:21:45;100503.19;;;10.75;68.56
7264;BME280;3673;52.480;13.348;2023-12-20T03:24:11;100508.44;;;10.71;68.66
7264;BME280;3673;52.480;13.348;2023-12-20T03:26:38;100507.56;;;10.76;69.04
7264;BME280;3673;52.480;13.348;2023-12-20T03:29:05;100495.03;;;11.21;67.70
7264;BME280;3673;52.480;13.348;2023-12-20T03:31:33;100506.72;;;10.65;69.69
7264;BME280;3673;52.480;13.348;2023-12-20T03:34:00;100498.81;;;10.77;69.21
7264;BME280;3673;52.480;13.348;2023-12-20T03:36:26;100498.66;;;11.05;68.13
7264;BME280;3673;52.480;13.348;2023-12-20T03:38:53;100502.09;;;11.11;67.46
7264;BME280;3673;52.480;13.348;2023-12-20T03:41:20;100492.66;;;10.91;68.15
7264;BME280;3673;52.480;13.348;2023-12-20T03:43:47;100501.44;;;10.77;68.79
7264;BME280;3673;52.480;13.348;2023-12-20T03:46:13;100500.72;;;10.47;68.84
7264;BME280;3673;52.480;13.348;2023-12-20T03:48:42;100491.66;;;11.10;67.79
7264;BME280;3673;52.480;13.348;2023-12-20T03:51:08;100499.84;;;10.48;68.76
7264;BME280;3673;52.480;13.348;2023-12-20T03:53:35;100496.31;;;10.55;68.81
7264;BME280;3673;52.480;13.348;2023-12-20T03:56:02;100498.09;;;10.50;69.35
7264;BME280;3673;52.480;13.348;2023-12-20T03:58:29;100490.22;;;10.51;68.64
7264;BME280;3673;52.480;13.348;2023-12-20T04:00:56;100479.50;;;10.98;67.82
7264;BME280;3673;52.480;13.348;2023-12-20T04:03:23;100466.59;;;10.69;67.89
7264;BME280;3673;52.480;13.348;2023-12-20T04:05:51;100481.25;;;10.95;67.43
7264;BME280;3673;52.480;13.348;2023-12-20T04:08:18;100476.94;;;10.88;67.40
7264;BME280;3673;52.480;13.348;2023-12-20T04:10:44;100469.75;;;11.20;66.75
7264;BME280;3673;52.480;13.348;2023-12-20T04:13:11;100476.28;;;10.57;67.28
7264;BME280;3673;52.480;13.348;2023-12-20T04:15:38;100463.28;;;10.39;68.50
7264;BME280;3673;52.480;13.348;2023-12-20T04:18:05;100462.22;;;10.71;67.21
7264;BME280;3673;52.480;13.348;2023-12-20T04:20:32;100468.53;;;10.32;67.98
7264;BME280;3673;52.480;13.348;2023-12-20T04:23:00;100464.22;;;10.25;67.76
7264;BME280;3673;52.480;13.348;2023-12-20T04:25:27;100457.31;;;10.00;68.51
7264;BME280;3673;52.480;13.348;2023-12-20T04:27:53;100468.44;;;10.52;67.32
7264;BME280;3673;52.480;13.348;2023-12-20T04:30:20;100461.41;;;10.62;66.60
7264;BME280;3673;52.480;13.348;2023-12-20T04:32:47;100449.19;;;10.62;66.74
7264;BME280;3673;52.480;13.348;2023-12-20T04:35:14;100455.41;;;10.42;65.90
7264;BME280;3673;52.480;13.348;2023-12-20T04:37:41;100440.59;;;10.44;66.32
7264;BME280;3673;52.480;13.348;2023-12-20T04:40:09;100466.81;;;10.30;66.97
7264;BME280;3673;52.480;13.348;2023-12-20T04:42:37;100465.13;;;10.17;67.67
7264;BME280;3673;52.480;13.348;2023-12-20T04:45:05;100466.84;;;10.18;67.75
7264;BME280;3673;52.480;13.348;2023-12-20T04:47:32;100474.66;;;10.30;67.37
7264;BME280;3673;52.480;13.348;2023-12-20T04:49:58;100469.47;;;10.19;67.03
7264;BME280;3673;52.480;13.348;2023-12-20T04:52:25;100467.63;;;10.43;67.05
7264;BME280;3673;52.480;13.348;2023-12-20T04:54:52;100460.81;;;9.93;67.60
7264;BME280;3673;52.480;13.348;2023-12-20T04:57:21;100457.22;;;10.33;67.39
7264;BME280;3673;52.480;13.348;2023-12-20T04:59:48;100453.69;;;10.34;66.35
7264;BME280;3673;52.480;13.348;2023-12-20T05:02:15;100466.69;;;10.56;66.44
7264;BME280;3673;52.480;13.348;2023-12-20T05:04:42;100464.16;;;10.39;66.53
7264;BME280;3673;52.480;13.348;2023-12-20T05:07:08;100472.06;;;10.19;66.79
7264;BME280;3673;52.480;13.348;2023-12-20T05:09:35;100478.16;;;10.30;65.84
7264;BME280;3673;52.480;13.348;2023-12-20T05:12:03;100470.31;;;10.21;65.72
7264;BME280;3673;52.480;13.348;2023-12-20T05:14:31;100479.00;;;10.32;65.64
7264;BME280;3673;52.480;13.348;2023-12-20T05:16:58;100481.47;;;10.61;65.55
7264;BME280;3673;52.480;13.348;2023-12-20T05:19:25;100480.78;;;10.20;65.51
7264;BME280;3673;52.480;13.348;2023-12-20T05:21:52;100481.63;;;10.29;65.62
7264;BME280;3673;52.480;13.348;2023-12-20T05:24:19;100485.13;;;10.22;65.89
7264;BME280;3673;52.480;13.348;2023-12-20T05:26:46;100475.66;;;9.73;67.35
7264;BME280;3673;52.480;13.348;2023-12-20T05:29:12;100480.00;;;9.71;67.52
7264;BME280;3673;52.480;13.348;2023-12-20T05:31:40;100486.97;;;9.51;67.66
7264;BME280;3673;52.480;13.348;2023-12-20T05:34:07;100483.50;;;9.38;68.10
7264;BME280;3673;52.480;13.348;2023-12-20T05:36:34;100478.28;;;9.59;67.37
7264;BME280;3673;52.480;13.348;2023-12-20T05:39:01;100478.28;;;9.70;67.21
7264;BME280;3673;52.480;13.348;2023-12-20T05:41:29;100482.66;;;9.56;66.36
7264;BME280;3673;52.480;13.348;2023-12-20T05:43:55;100473.84;;;9.95;66.01
7264;BME280;3673;52.480;13.348;2023-12-20T05:46:23;100479.16;;;9.73;66.20
7264;BME280;3673;52.480;13.348;2023-12-20T05:48:51;100467.84;;;9.59;65.36
7264;BME280;3673;52.480;13.348;2023-12-20T05:51:18;100453.06;;;9.25;65.69
7264;BME280;3673;52.480;13.348;2023-12-20T05:53:45;100464.31;;;9.84;65.25
7264;BME280;3673;52.480;13.348;2023-12-20T05:56:12;100467.84;;;9.67;65.29
7264;BME280;3673;52.480;13.348;2023-12-20T05:58:39;100473.00;;;9.88;64.89
7264;BME280;3673;52.480;13.348;2023-12-20T06:01:06;100466.94;;;9.72;65.45
7264;BME280;3673;52.480;13.348;2023-12-20T06:03:34;100462.56;;;9.87;65.03
7264;BME280;3673;52.480;13.348;2023-12-20T06:06:08;100457.38;;;9.68;65.13
7264;BME280;3673;52.480;13.348;2023-12-20T06:08:35;100457.28;;;10.02;64.45
7264;BME280;3673;52.480;13.348;2023-12-20T06:11:02;100453.81;;;10.00;64.73
7264;BME280;3673;52.480;13.348;2023-12-20T06:13:29;100448.59;;;9.97;63.98
7264;BME280;3673;52.480;13.348;2023-12-20T06:15:56;100452.13;;;9.71;64.85
7264;BME280;3673;52.480;13.348;2023-12-20T06:18:23;100456.50;;;9.71;64.93
7264;BME280;3673;52.480;13.348;2023-12-20T06:20:50;100444.34;;;9.27;65.54
7264;BME280;3673;52.480;13.348;2023-12-20T06:23:18;100445.22;;;9.49;65.00
7264;BME280;3673;52.480;13.348;2023-12-20T06:25:45;100454.81;;;9.53;65.22
7264;BME280;3673;52.480;13.348;2023-12-20T06:28:12;100453.88;;;9.86;64.49
7264;BME280;3673;52.480;13.348;2023-12-20T06:30:40;100463.44;;;9.81;64.55
7264;BME280;3673;52.480;13.348;2023-12-20T06:33:07;100458.25;;;9.58;64.79
7264;BME280;3673;52.480;13.348;2023-12-20T06:35:35;100468.72;;;9.58;65.03
7264;BME280;3673;52.480;13.348;2023-12-20T06:38:02;100460.88;;;9.63;65.43
7264;BME280;3673;52.480;13.348;2023-12-20T06:40:30;100456.53;;;9.45;65.81
7264;BME280;3673;52.480;13.348;2023-12-20T06:42:57;100460.03;;;9.46;65.47
7264;BME280;3673;52.480;13.348;2023-12-20T06:45:25;100452.16;;;9.68;64.90
7264;BME280;3673;52.480;13.348;2023-12-20T06:47:51;100454.78;;;9.64;64.95
7264;BME280;3673;52.480;13.348;2023-12-20T06:50:20;100448.72;;;9.39;65.94
7264;BME280;3673;52.480;13.348;2023-12-20T06:52:47;100445.22;;;9.51;65.27
7264;BME280;3673;52.480;13.348;2023-12-20T06:55:14;100445.22;;;9.55;65.74
7264;BME280;3673;52.480;13.348;2023-12-20T06:57:42;100440.88;;;9.57;65.47
7264;BME280;3673;52.480;13.348;2023-12-20T07:00:11;100452.19;;;9.24;65.83
7264;BME280;3673;52.480;13.348;2023-12-20T07:02:38;100453.03;;;9.48;65.73
7264;BME280;3673;52.480;13.348;2023-12-20T07:05:05;100441.75;;;9.15;66.55
7264;BME280;3673;52.480;13.348;2023-12-20T07:07:32;100446.09;;;9.42;66.01
7264;BME280;3673;52.480;13.348;2023-12-20T07:09:59;100446.09;;;9.42;66.17
7264;BME280;3673;52.480;13.348;2023-12-20T07:12:25;100448.72;;;9.41;66.21
7264;BME280;3673;52.480;13.348;2023-12-20T07:14:54;100445.25;;;9.13;66.57
7264;BME280;3673;52.480;13.348;2023-12-20T07:17:21;100438.28;;;9.06;67.08
7264;BME280;3673;52.480;13.348;2023-12-20T07:19:48;100445.22;;;8.98;66.79
7264;BME280;3673;52.480;13.348;2023-12-20T07:22:15;100435.69;;;9.41;66.06
7264;BME280;3673;52.480;13.348;2023-12-20T07:24:42;100447.84;;;9.31;66.41
7264;BME280;3673;52.480;13.348;2023-12-20T07:27:08;100451.34;;;9.22;66.44
7264;BME280;3673;52.480;13.348;2023-12-20T07:29:35;100429.56;;;9.14;66.57
7264;BME280;3673;52.480;13.348;2023-12-20T07:32:04;100442.59;;;9.51;65.74
7264;BME280;3673;52.480;13.348;2023-12-20T07:34:31;100429.56;;;9.28;66.28
7264;BME280;3673;52.480;13.348;2023-12-20T07:36:57;100442.59;;;9.51;65.53
7264;BME280;3673;52.480;13.348;2023-12-20T07:39:24;100446.03;;;9.80;65.10
7264;BME280;3673;52.480;13.348;2023-12-20T07:41:51;100429.56;;;9.49;65.16
7264;BME280;3673;52.480;13.348;2023-12-20T07:44:18;100433.03;;;9.35;65.74
7264;BME280;3673;52.480;13.348;2023-12-20T07:46:45;100429.59;;;9.32;65.19
7264;BME280;3673;52.480;13.348;2023-12-20T07:49:13;100438.25;;;9.63;64.49
7264;BME280;3673;52.480;13.348;2023-12-20T07:51:39;100429.53;;;9.55;64.68
7264;BME280;3673;52.480;13.348;2023-12-20T07:54:06;100430.47;;;9.33;64.49
7264;BME280;3673;52.480;13.348;2023-12-20T07:56:33;100421.63;;;9.90;63.65
7264;BME280;3673;52.480;13.348;2023-12-20T07:59:00;100419.09;;;9.66;64.60
7264;BME280;3673;52.480;13.348;2023-12-20T08:01:27;100430.38;;;9.71;63.75
7264;BME280;3673;52.480;13.348;2023-12-20T08:03:53;100433.91;;;9.43;64.47
7264;BME280;3673;52.480;13.348;2023-12-20T08:06:21;100429.59;;;9.23;64.76
7264;BME280;3673;52.480;13.348;2023-12-20T08:08:49;100425.22;;;9.50;64.51
7264;BME280;3673;52.480;13.348;2023-12-20T08:11:16;100420.00;;;9.41;64.78
7264;BME280;3673;52.480;13.348;2023-12-20T08:13:43;100426.06;;;9.55;64.29
7264;BME280;3673;52.480;13.348;2023-12-20T08:16:09;100438.22;;;9.80;63.52
7264;BME280;3673;52.480;13.348;2023-12-20T08:18:38;100421.69;;;9.63;64.50
7264;BME280;3673;52.480;13.348;2023-12-20T08:21:05;100437.31;;;9.84;63.62
7264;BME280;3673;52.480;13.348;2023-12-20T08:23:34;100443.47;;;9.63;64.13
7264;BME280;3673;52.480;13.348;2023-12-20T08:26:04;100434.78;;;9.49;64.07
7264;BME280;3673;52.480;13.348;2023-12-20T08:28:31;100438.25;;;9.48;64.49
7264;BME280;3673;52.480;13.348;2023-12-20T08:30:58;100430.31;;;9.92;63.44
7264;BME280;3673;52.480;13.348;2023-12-20T08:33:25;100433.94;;;9.47;64.37
7264;BME280;3673;52.480;13.348;2023-12-20T08:35:52;100417.34;;;9.74;63.84
7264;BME280;3673;52.480;13.348;2023-12-20T08:38:19;100421.56;;;10.01;62.58
7264;BME280;3673;52.480;13.348;2023-12-20T08:40:47;100425.19;;;9.62;63.71
7264;BME280;3673;52.480;13.348;2023-12-20T08:43:14;100415.63;;;9.41;64.41
7264;BME280;3673;52.480;13.348;2023-12-20T08:45:41;100411.22;;;9.75;63.94
7264;BME280;3673;52.480;13.348;2023-12-20T08:48:08;100416.41;;;9.84;63.96
7264;BME280;3673;52.480;13.348;2023-12-20T08:50:34;100410.31;;;9.82;63.64
7264;BME280;3673;52.480;13.348;2023-12-20T08:53:02;100417.19;;;10.10;63.46
7264;BME280;3673;52.480;13.348;2023-12-20T08:55:28;100411.16;;;9.96;63.57
7264;BME280;3673;52.480;13.348;2023-12-20T08:57:58;100407.59;;;10.08;62.76
7264;BME280;3673;52.480;13.348;2023-12-20T09:00:25;100409.16;;;10.53;62.23
7264;BME280;3673;52.480;13.348;2023-12-20T09:02:53;100417.19;;;10.10;62.69
7264;BME280;3673;52.480;13.348;2023-12-20T09:05:20;100405.81;;;10.25;62.72
7264;BME280;3673;52.480;13.348;2023-12-20T09:07:48;100396.28;;;10.09;62.85
7264;BME280;3673;52.480;13.348;2023-12-20T09:10:14;100407.66;;;9.96;63.19
7264;BME280;3673;52.480;13.348;2023-12-20T09:12:41;100391.97;;;10.03;63.19
7264;BME280;3673;52.480;13.348;2023-12-20T09:15:09;100384.94;;;10.17;62.95
7264;BME280;3673;52.480;13.348;2023-12-20T09:17:36;100400.66;;;10.07;62.93
7264;BME280;3673;52.480;13.348;2023-12-20T09:20:04;100391.91;;;10.12;62.76
7264;BME280;3673;52.480;13.348;2023-12-20T09:22:32;100389.31;;;10.09;62.31
7264;BME280;3673;52.480;13.348;2023-12-20T09:24:59;100385.78;;;10.22;62.16
7264;BME280;3673;52.480;13.348;2023-12-20T09:27:26;100381.44;;;10.21;62.39
7264;BME280;3673;52.480;13.348;2023-12-20T09:29:53;100395.31;;;10.37;61.88
7264;BME280;3673;52.480;13.348;2023-12-20T09:32:21;100386.63;;;10.30;61.77
7264;BME280;3673;52.480;13.348;2023-12-20T09:34:48;100382.28;;;10.25;61.73
7264;BME280;3673;52.480;13.348;2023-12-20T09:37:15;100382.38;;;9.98;62.17
7264;BME280;3673;52.480;13.348;2023-12-20T09:39:41;100383.22;;;10.16;62.60
7264;BME280;3673;52.480;13.348;2023-12-20T09:42:11;100384.88;;;10.34;61.46
7264;BME280;3673;52.480;13.348;2023-12-20T09:44:43;100375.47;;;9.89;62.55
7264;BME280;3673;52.480;13.348;2023-12-20T09:47:10;100380.59;;;10.13;62.55
7264;BME280;3673;52.480;13.348;2023-12-20T09:49:38;100381.38;;;10.37;61.87
7264;BME280;3673;52.480;13.348;2023-12-20T09:52:08;100373.56;;;10.30;60.78
7264;BME280;3673;52.480;13.348;2023-12-20T09:54:36;100371.88;;;10.16;61.39
7264;BME280;3673;52.480;13.348;2023-12-20T09:57:02;100377.03;;;10.31;61.08
7264;BME280;3673;52.480;13.348;2023-12-20T09:59:30;100378.00;;;10.01;61.05
7264;BME280;3673;52.480;13.348;2023-12-20T10:01:57;100375.34;;;10.19;60.27
7264;BME280;3673;52.480;13.348;2023-12-20T10:04:24;100372.53;;;10.56;59.66
7264;BME280;3673;52.480;13.348;2023-12-20T10:06:52;100356.81;;;10.60;59.47
7264;BME280;3673;52.480;13.348;2023-12-20T10:09:19;100359.19;;;10.89;58.93
7264;BME280;3673;52.480;13.348;2023-12-20T10:11:46;100356.78;;;10.62;59.42
7264;BME280;3673;52.480;13.348;2023-12-20T10:14:12;100350.75;;;10.52;59.83
7264;BME280;3673;52.480;13.348;2023-12-20T10:16:41;100350.81;;;10.42;60.00
7264;BME280;3673;52.480;13.348;2023-12-20T10:19:08;100347.03;;;10.82;59.26
7264;BME280;3673;52.480;13.348;2023-12-20T10:21:34;100337.78;;;10.40;59.66
7264;BME280;3673;52.480;13.348;2023-12-20T10:24:03;100329.03;;;10.38;59.60
7264;BME280;3673;52.480;13.348;2023-12-20T10:26:30;100334.22;;;10.47;59.55
7264;BME280;3673;52.480;13.348;2023-12-20T10:29:00;100335.81;;;10.65;59.31
7264;BME280;3673;52.480;13.348;2023-12-20T10:31:30;100328.94;;;10.52;59.20
7264;BME280;3673;52.480;13.348;2023-12-20T10:33:58;100330.75;;;10.42;59.33
7264;BME280;3673;52.480;13.348;2023-12-20T10:36:26;100323.88;;;10.30;59.42
7264;BME280;3673;52.480;13.348;2023-12-20T10:38:54;100306.50;;;10.17;60.04
7264;BME280;3673;52.480;13.348;2023-12-20T10:41:26;100296.03;;;10.26;59.71
7264;BME280;3673;52.480;13.348;2023-12-20T10:43:56;100293.25;;;10.45;59.11
7264;BME280;3673;52.480;13.348;2023-12-20T10:46:26;100278.22;;;10.71;58.90
7264;BME280;3673;52.480;13.348;2023-12-20T10:48:54;100296.22;;;11.04;58.00
7264;BME280;3673;52.480;13.348;2023-12-20T10:51:22;100298.06;;;10.96;57.79
7264;BME280;3673;52.480;13.348;2023-12-20T10:53:51;100284.19;;;10.87;57.60
7264;BME280;3673;52.480;13.348;2023-12-20T10:56:19;100279.31;;;10.47;57.89
7264;BME280;3673;52.480;13.348;2023-12-20T10:58:49;100282.63;;;10.64;58.47
7264;BME280;3673;52.480;13.348;2023-12-20T11:01:17;100272.94;;;10.77;58.37
7264;BME280;3673;52.480;13.348;2023-12-20T11:03:48;100267.41;;;11.04;57.82
7264;BME280;3673;52.480;13.348;2023-12-20T11:06:27;100278.25;;;10.69;58.32
7264;BME280;3673;52.480;13.348;2023-12-20T11:09:06;100267.91;;;10.56;58.54
7264;BME280;3673;52.480;13.348;2023-12-20T11:12:00;100259.94;;;10.68;58.44
7264;BME280;3673;52.480;13.348;2023-12-20T11:14:39;100262.69;;;10.51;60.57
7264;BME280;3673;52.480;13.348;2023-12-20T11:17:09;100251.44;;;10.42;61.41
7264;BME280;3673;52.480;13.348;2023-12-20T11:19:38;100247.00;;;10.53;60.70
7264;BME280;3673;52.480;13.348;2023-12-20T11:22:10;100232.13;;;10.58;60.84
7264;BME280;3673;52.480;13.348;2023-12-20T11:24:44;100230.25;;;10.73;60.71
7264;BME280;3673;52.480;13.348;2023-12-20T11:27:13;100225.34;;;10.37;60.56
7264;BME280;3673;52.480;13.348;2023-12-20T11:29:41;100221.84;;;10.40;61.21
7264;BME280;3673;52.480;13.348;2023-12-20T11:32:28;100212.75;;;10.80;60.56
7264;BME280;3673;52.480;13.348;2023-12-20T11:34:57;100203.34;;;10.59;60.88
7264;BME280;3673;52.480;13.348;2023-12-20T11:37:29;100204.81;;;10.86;60.24
7264;BME280;3673;52.480;13.348;2023-12-20T11:40:02;100192.47;;;10.99;59.88
7264;BME280;3673;52.480;13.348;2023-12-20T11:42:33;100188.34;;;10.76;60.42
7264;BME280;3673;52.480;13.348;2023-12-20T11:45:02;100180.97;;;10.29;61.34
7264;BME280;3673;52.480;13.348;2023-12-20T11:47:30;100189.56;;;10.42;60.66
7264;BME280;3673;52.480;13.348;2023-12-20T11:49:57;100180.81;;;10.45;60.85
7264;BME280;3673;52.480;13.348;2023-12-20T11:52:26;100192.31;;;10.25;61.49
7264;BME280;3673;52.480;13.348;2023-12-20T11:54:52;100176.56;;;10.34;61.90
7264;BME280;3673;52.480;13.348;2023-12-20T11:57:19;100174.53;;;10.64;61.01
7264;BME280;3673;52.480;13.348;2023-12-20T11:59:46;100162.31;;;10.64;61.03
7264;BME280;3673;52.480;13.348;2023-12-20T12:02:14;100167.59;;;10.60;61.57
7264;BME280;3673;52.480;13.348;2023-12-20T12:04:41;100148.66;;;10.37;61.78
7264;BME280;3673;52.480;13.348;2023-12-20T12:07:08;100143.91;;;10.72;60.62
7264;BME280;3673;52.480;13.348;2023-12-20T12:09:35;100131.09;;;10.49;60.72
7264;BME280;3673;52.480;13.348;2023-12-20T12:12:02;100122.56;;;10.33;61.17
7264;BME280;3673;52.480;13.348;2023-12-20T12:14:29;100117.00;;;10.61;60.54
7264;BME280;3673;52.480;13.348;2023-12-20T12:16:56;100114.56;;;10.44;60.04
7264;BME280;3673;52.480;13.348;2023-12-20T12:19:26;100127.22;;;10.83;59.80
7264;BME280;3673;52.480;13.348;2023-12-20T12:22:04;100101.72;;;10.26;60.59
7264;BME280;3673;52.480;13.348;2023-12-20T12:24:32;100094.47;;;10.51;59.93
7264;BME280;3673;52.480;13.348;2023-12-20T12:26:59;100097.66;;;10.75;59.72
7264;BME280;3673;52.480;13.348;2023-12-20T12:29:27;100099.53;;;10.64;60.09
7264;BME280;3673;52.480;13.348;2023-12-20T12:31:54;100088.22;;;10.62;60.67
7264;BME280;3673;52.480;13.348;2023-12-20T12:34:21;100094.94;;;10.04;62.46
7264;BME280;3673;52.480;13.348;2023-12-20T12:36:49;100082.69;;;10.04;63.39
7264;BME280;3673;52.480;13.348;2023-12-20T12:39:18;100078.41;;;9.99;64.39
7264;BME280;3673;52.480;13.348;2023-12-20T12:41:45;100076.72;;;9.92;64.44
7264;BME280;3673;52.480;13.348;2023-12-20T12:44:11;100075.03;;;9.86;65.17
7264;BME280;3673;52.480;13.348;2023-12-20T12:46:38;100067.25;;;9.78;65.55
7264;BME280;3673;52.480;13.348;2023-12-20T12:49:05;100067.41;;;9.63;66.14
7264;BME280;3673;52.480;13.348;2023-12-20T12:51:32;100050.91;;;9.58;66.12
7264;BME280;3673;52.480;13.348;2023-12-20T12:54:00;100068.81;;;9.99;66.06
7264;BME280;3673;52.480;13.348;2023-12-20T12:56:26;100055.78;;;9.96;65.77
7264;BME280;3673;52.480;13.348;2023-12-20T12:58:53;100043.53;;;10.01;65.45
7264;BME280;3673;52.480;13.348;2023-12-20T13:01:20;100054.72;;;10.20;65.35
7264;BME280;3673;52.480;13.348;2023-12-20T13:03:47;100053.22;;;9.93;65.67